Kezdőlap
METAR-TAF:

METAR-TAF

Repülőterek :

Butterworth, Malajzia

földrajzi szélesség: 05-27-58N, földrajzi hosszúság: 100-23-28E, magasság: 2 m

Jelenlegi meteorológiai megfigyelések

A jelentés 1 órával és 15 perccel ezelõtt készült, 05:00 UTC
Dél-délnyugati szél 8 kt, dél-délkeleti és nyugat-délnyugati között változik
Hőmérséklet 30°C
Páratartalom 75%
Légköri nyomás 1008 hPa
Látótávolság: 7000 m
Kevés felhő 1000 lábon

METAR: WMKB 210500Z 21008KT 150V250 7000 FEW010 30/25 Q1008 NOSIG

Idő: 14:15 (06:15 UTC)

Előrejelzés

A jelentés 1 órával és 15 perccel ezelõtt készült, 05:00 UTC
Az előrejelzés 21-én 06 óra UTC és 22-én 06 óra UTC között érvényes
Délnyugati szél 7 kt
Látótávolság: 8000 m
Kevés felhő 2000 lábon
21-én 13 óra UTC és 21-én 14 óra UTC között fokozatosan kialakuló
Kelet-északkeleti szél 4 kt
Látótávolság: 8000 m
Kevés felhő 2400 lábon

TAF: WMKB 210500Z 2106/2206 23007KT 8000 FEW020 BECMG 2113/2114 07004KT 8000 FEW024

Meteorológiai megfigyelések és előrejelzések több, mint 4000 repülőtéren (METAR és TAF jelentéseket).

A térképen piros és sárga pontok jelzik az elérhető meteorológiai állomásokat.

Mozgassa az egeret a pont fölött, hogy megjelenjen az állomás neve.

Azután kattintson az időjárási megfigyelések és előrejelzések megtekintéséhez.

A térkép megváltoztatása: kattintson a fekete keresztel jelölt zöld gombra ráközelítéshez, a vonallal jelölt zöld gombra távolításhoz, vagy a zöld nyilakra a szomszédos térképek eléréséhez.


METAR-TAF: